Time;durP1;ratioP1;P1;durP2;ratioP2;P2;SDS_P1;SDS_P2;PMS_P1;PMS_P2;Temp;Humidity;BMP_temperature;BMP_pressure;BME280_temperature;BME280_humidity;BME280_pressure;Samples;Min_cycle;Max_cycle;Signal;HPM_P1;HPM_P2
2022/11/20 00:01:40;;;;;;;;;9.75;8.75;;;;;10.79;59.09;100943.50;5050681;28;46251;-64
2022/11/20 00:04:06;;;;;;;;;8.25;7.00;;;;;10.83;58.78;100956.09;5053190;28;45331;-61
2022/11/20 00:06:31;;;;;;;;;19.75;14.75;;;;;10.70;58.39;100937.03;5057993;28;45206;-61
2022/11/20 00:08:59;;;;;;;;;8.50;6.75;;;;;10.82;58.73;100948.94;5051878;28;45230;-61
2022/11/20 00:11:27;;;;;;;;;9.75;7.00;;;;;10.65;58.65;100930.66;5051870;28;45091;-62
2022/11/20 00:13:56;;;;;;;;;7.25;5.25;;;;;10.77;58.99;100964.81;5051876;28;45067;-62
2022/11/20 00:16:24;;;;;;;;;12.00;9.75;;;;;10.72;58.89;100961.13;5050927;28;46707;-61
2022/11/20 00:18:51;;;;;;;;;11.00;10.25;;;;;10.76;58.76;100951.44;5050788;28;45068;-64
2022/11/20 00:21:22;;;;;;;;;10.25;6.75;;;;;10.72;58.54;100946.88;5052786;28;45179;-63
2022/11/20 00:23:49;;;;;;;;;10.00;7.50;;;;;10.68;58.25;100941.44;5051623;28;45029;-62
2022/11/20 00:26:17;;;;;;;;;9.25;8.50;;;;;10.69;58.55;100942.31;5053046;28;45394;-64
2022/11/20 00:28:44;;;;;;;;;12.75;10.75;;;;;10.70;57.92;100945.03;5053081;28;45130;-62
2022/11/20 00:31:15;;;;;;;;;9.25;5.75;;;;;10.67;57.71;100944.06;5053368;28;45093;-62
2022/11/20 00:33:41;;;;;;;;;8.33;5.33;;;;;10.70;57.89;100958.41;5029711;28;45856;-63
2022/11/20 00:36:10;;;;;;;;;7.00;5.00;;;;;10.65;57.94;100962.72;5027911;28;47013;-63
2022/11/20 00:38:36;;;;;;;;;7.50;7.50;;;;;10.64;58.44;100963.59;5051240;28;45404;-65
2022/11/20 00:41:05;;;;;;;;;4.67;4.00;;;;;10.60;58.31;100950.97;5053439;28;45387;-67
2022/11/20 00:43:30;;;;;;;;;7.00;4.00;;;;;10.69;58.37;100963.69;5051980;28;45386;-65
2022/11/20 00:46:00;;;;;;;;;6.75;5.00;;;;;10.67;58.46;100969.03;5050996;28;45720;-63
2022/11/20 00:48:27;;;;;;;;;8.50;7.00;;;;;10.67;58.25;100971.69;5049140;28;45278;-65
2022/11/20 00:50:53;;;;;;;;;5.00;3.50;;;;;10.60;58.17;100956.31;5050751;28;44947;-63
2022/11/20 00:53:20;;;;;;;;;6.00;6.00;;;;;10.56;58.56;100954.44;5049709;28;45123;-62
2022/11/20 00:55:57;;;;;;;;;4.00;4.00;;;;;10.62;58.11;100973.31;5050942;28;45255;-64
2022/11/20 00:58:24;;;;;;;;;10.75;8.75;;;;;10.60;58.70;100964.34;5049571;28;45026;-62
2022/11/20 01:00:49;;;;;;;;;27.50;23.75;;;;;10.51;58.46;100942.72;5051182;28;44966;-62
2022/11/20 01:03:19;;;;;;;;;6.75;3.00;;;;;10.58;58.60;100968.75;5048612;28;45340;-64
2022/11/20 01:05:44;;;;;;;;;6.33;6.33;;;;;10.51;58.09;100956.06;5041498;28;45251;-65
2022/11/20 01:08:10;;;;;;;;;5.50;5.00;;;;;10.50;58.23;100963.16;5044181;28;45021;-63
2022/11/20 01:10:36;;;;;;;;;5.75;4.50;;;;;10.44;58.23;100959.41;5025232;28;45432;-63
2022/11/20 01:15:45;;;;;;;;;4.50;4.50;;;;;10.30;58.29;100942.94;5049184;28;45398;-62
2022/11/20 01:18:10;;;;;;;;;3.00;3.00;;;;;10.44;58.27;100965.66;5033930;28;44956;-65
2022/11/20 01:20:36;;;;;;;;;6.75;6.00;;;;;10.44;58.38;100973.69;5051928;28;45060;-62
2022/11/20 01:23:04;;;;;;;;;8.75;5.25;;;;;10.33;58.81;100956.41;5049208;28;45280;-66
2022/11/20 01:25:30;;;;;;;;;3.50;3.50;;;;;10.34;58.76;100952.88;5049138;28;45972;-63
2022/11/20 01:27:55;;;;;;;;;4.00;4.00;;;;;10.24;58.44;100946.31;5051543;28;45216;-62
2022/11/20 01:30:21;;;;;;;;;8.00;4.00;;;;;10.37;58.68;100958.31;5051906;28;44895;-65
2022/11/20 01:32:46;;;;;;;;;6.00;5.00;;;;;10.37;58.36;100971.66;5046615;28;45489;-60
2022/11/20 01:35:12;;;;;;;;;4.75;4.00;;;;;10.30;58.73;100958.97;5050121;28;45974;-62
2022/11/20 01:37:37;;;;;;;;;5.25;4.50;;;;;10.35;58.35;100962.72;5049211;28;45232;-66
2022/11/20 01:40:03;;;;;;;;;22.00;17.75;;;;;10.27;58.24;100942.84;5031551;28;45232;-63
2022/11/20 01:45:50;;;;;;;;;7.75;6.00;;;;;10.32;58.52;100966.16;5048413;28;45462;-64
2022/11/20 01:48:17;;;;;;;;;6.00;5.25;;;;;10.35;58.66;100954.69;5045587;28;44978;-61
2022/11/20 01:50:43;;;;;;;;;5.75;3.25;;;;;10.32;58.63;100966.16;5049604;28;45515;-64
2022/11/20 01:53:13;;;;;;;;;4.00;3.00;;;;;10.28;58.13;100955.34;5048328;28;45269;-61
2022/11/20 01:55:49;;;;;;;;;7.50;5.00;;;;;10.30;58.28;100956.28;5048078;28;46163;-62
2022/11/20 01:58:16;;;;;;;;;7.00;6.00;;;;;10.27;58.39;100954.41;5034342;28;45218;-62
2022/11/20 02:00:41;;;;;;;;;3.75;3.00;;;;;10.20;58.20;100933.72;5051864;28;44919;-62
2022/11/20 02:03:14;;;;;;;;;3.75;2.75;;;;;10.30;58.95;100957.19;5052493;28;45084;-62
2022/11/20 02:05:47;;;;;;;;;5.00;5.00;;;;;10.32;58.72;100950.16;5050862;28;45572;-62
2022/11/20 02:08:13;;;;;;;;;4.00;4.00;;;;;10.33;58.58;100951.06;5049386;28;45187;-62
2022/11/20 02:10:39;;;;;;;;;3.00;3.00;;;;;10.31;58.93;100942.97;5050144;28;45053;-63
2022/11/20 02:15:49;;;;;;;;;4.25;4.25;;;;;10.31;58.79;100944.72;5051852;28;45424;-62
2022/11/20 02:18:18;;;;;;;;;4.75;4.00;;;;;10.34;58.71;100950.19;5051237;28;45042;-62
2022/11/20 02:20:46;;;;;;;;;4.50;4.00;;;;;10.36;58.50;100944.91;5051651;28;45173;-63
2022/11/20 02:23:16;;;;;;;;;7.00;4.00;;;;;10.33;58.85;100938.63;5051074;28;45286;-62
2022/11/20 02:25:43;;;;;;;;;3.50;3.00;;;;;10.32;58.71;100938.56;5049941;28;46240;-62
2022/11/20 02:28:10;;;;;;;;;4.25;4.25;;;;;10.27;58.49;100945.50;5049027;28;44907;-64
2022/11/20 02:30:35;;;;;;;;;6.25;6.25;;;;;10.08;59.00;100911.97;5022616;28;45187;-64
2022/11/20 02:33:00;;;;;;;;;3.00;2.00;;;;;10.25;58.68;100941.88;5051101;28;44942;-64
2022/11/20 02:35:26;;;;;;;;;6.25;4.75;;;;;10.28;58.79;100942.88;5050866;28;45555;-64
2022/11/20 02:37:55;;;;;;;;;5.75;4.50;;;;;10.25;58.45;100932.09;5051180;28;45241;-61
2022/11/20 02:40:21;;;;;;;;;5.00;4.25;;;;;10.23;58.75;100928.50;5051611;28;45034;-64
2022/11/20 02:42:47;;;;;;;;;6.00;5.00;;;;;10.27;58.36;100937.50;5051483;28;45283;-66
2022/11/20 02:45:12;;;;;;;;;8.25;5.25;;;;;10.24;58.85;100927.63;5050202;28;45484;-65
2022/11/20 02:47:37;;;;;;;;;6.25;5.00;;;;;10.18;58.15;100921.19;5030606;28;45286;-66
2022/11/20 02:50:04;;;;;;;;;6.25;4.00;;;;;10.18;58.27;100914.09;5050794;28;45031;-63
2022/11/20 02:52:30;;;;;;;;;6.00;5.00;;;;;10.18;58.40;100913.16;5051789;28;45141;-63
2022/11/20 02:54:56;;;;;;;;;5.75;3.50;;;;;10.17;58.61;100911.38;5050347;28;45122;-62
2022/11/20 02:57:22;;;;;;;;;5.00;3.67;;;;;10.17;58.16;100904.25;5051018;28;45136;-62
2022/11/20 02:59:47;;;;;;;;;4.00;4.00;;;;;10.11;58.25;100893.38;5050749;28;45188;-63
2022/11/20 03:02:12;;;;;;;;;6.25;3.00;;;;;10.17;58.54;100903.38;5050393;28;46420;-63
2022/11/20 03:04:38;;;;;;;;;3.00;3.00;;;;;10.14;58.54;100896.16;5050789;28;45664;-63
2022/11/20 03:07:03;;;;;;;;;3.00;3.00;;;;;10.09;58.08;100882.66;5050799;28;45144;-64
2022/11/20 03:09:29;;;;;;;;;3.50;3.50;;;;;10.07;58.28;100889.72;5049423;28;45163;-62
2022/11/20 03:11:55;;;;;;;;;3.00;2.67;;;;;9.98;58.91;100877.84;5048469;28;45383;-63
2022/11/20 03:14:20;;;;;;;;;3.33;3.33;;;;;10.04;58.66;100876.28;5045338;28;45820;-62
2022/11/20 03:16:45;;;;;;;;;3.67;3.00;;;;;10.00;59.18;100879.72;5048741;28;44924;-62
2022/11/20 03:19:12;;;;;;;;;3.00;3.00;;;;;10.00;59.36;100877.06;5048614;28;45254;-62
2022/11/20 03:21:37;;;;;;;;;3.00;3.00;;;;;9.98;59.61;100889.44;5050923;28;44925;-64
2022/11/20 03:24:03;;;;;;;;;5.25;5.00;;;;;9.92;59.75;100865.25;5050098;28;45367;-61
2022/11/20 03:26:29;;;;;;;;;5.00;3.25;;;;;9.87;59.51;100848.19;5050464;28;45126;-63
2022/11/20 03:29:00;;;;;;;;;4.00;4.00;;;;;9.91;59.73;100868.75;5050878;28;44887;-62
2022/11/20 03:31:28;;;;;;;;;5.00;2.75;;;;;9.85;59.65;100856.16;5051589;28;45117;-62
2022/11/20 03:33:56;;;;;;;;;2.50;2.50;;;;;9.90;60.30;100867.88;5049226;28;45293;-65
2022/11/20 03:36:21;;;;;;;;;2.00;2.00;;;;;9.89;59.74;100862.47;5051812;28;45167;-63
2022/11/20 03:38:48;;;;;;;;;4.00;3.00;;;;;9.85;60.49;100857.88;5034848;28;45254;-63
2022/11/20 03:41:22;;;;;;;;;4.67;4.67;;;;;9.82;60.61;100863.16;5052643;28;45156;-64
2022/11/20 03:43:49;;;;;;;;;3.75;3.00;;;;;9.78;60.21;100862.13;5051032;28;45644;-62
2022/11/20 03:46:15;;;;;;;;;5.00;3.75;;;;;9.74;60.60;100858.47;5050671;28;45569;-61
2022/11/20 03:48:40;;;;;;;;;5.75;5.00;;;;;9.75;60.88;100856.69;5051202;28;45615;-61
2022/11/20 03:51:08;;;;;;;;;3.25;2.00;;;;;9.78;60.58;100857.72;5050661;28;44895;-65
2022/11/20 03:53:34;;;;;;;;;3.00;2.00;;;;;9.66;60.04;100825.31;5052175;28;46564;-62
2022/11/20 03:55:59;;;;;;;;;5.00;3.00;;;;;9.80;60.15;100854.19;5051905;28;45232;-62
2022/11/20 03:58:25;;;;;;;;;3.00;3.00;;;;;9.84;60.61;100850.75;5052931;28;45010;-63
2022/11/20 04:00:50;;;;;;;;;3.25;3.25;;;;;9.86;60.31;100852.59;5050180;28;45101;-62
2022/11/20 04:03:15;;;;;;;;;4.00;3.00;;;;;9.92;60.59;100850.13;5050936;28;45526;-62
2022/11/20 04:05:41;;;;;;;;;4.50;2.75;;;;;9.93;60.42;100841.28;5050950;28;45086;-61
2022/11/20 04:08:06;;;;;;;;;5.00;2.75;;;;;9.91;60.25;100829.63;5049886;28;44990;-62
2022/11/20 04:10:31;;;;;;;;;10.75;4.75;;;;;9.91;59.62;100834.06;5053954;28;45063;-62
2022/11/20 04:12:57;;;;;;;;;2.00;1.25;;;;;9.99;60.12;100837.88;5053464;28;45103;-61
2022/11/20 04:15:22;;;;;;;;;4.00;3.00;;;;;9.96;59.49;100832.44;5053422;28;45153;-63
2022/11/20 04:17:47;;;;;;;;;3.75;3.75;;;;;10.06;59.08;100842.53;5052872;28;44977;-63
2022/11/20 04:20:13;;;;;;;;;2.67;2.00;;;;;10.05;59.23;100840.75;5053501;28;45969;-65
2022/11/20 04:22:38;;;;;;;;;2.00;2.00;;;;;10.04;59.09;100843.34;5053667;28;45243;-65
2022/11/20 04:25:04;;;;;;;;;4.00;2.00;;;;;10.05;59.33;100840.75;5033671;28;45121;-65
2022/11/20 04:27:30;;;;;;;;;3.00;1.25;;;;;9.90;59.04;100817.16;5052918;28;45388;-62
2022/11/20 04:29:56;;;;;;;;;4.67;2.00;;;;;9.80;59.58;100795.47;5052451;28;45310;-67
2022/11/20 04:32:21;;;;;;;;;2.75;2.25;;;;;9.86;59.51;100806.34;5051440;28;45248;-65
2022/11/20 04:34:47;;;;;;;;;3.25;2.00;;;;;10.01;59.25;100836.16;5050371;28;45098;-63
2022/11/20 04:37:12;;;;;;;;;2.25;2.25;;;;;10.02;59.58;100837.97;5028415;28;45228;-63
2022/11/20 04:39:37;;;;;;;;;4.00;2.75;;;;;9.95;59.63;100830.66;5050701;28;45105;-61
2022/11/20 04:44:47;;;;;;;;;1.75;1.75;;;;;9.96;59.88;100835.09;5052959;28;44864;-63
2022/11/20 04:47:12;;;;;;;;;2.00;2.00;;;;;9.95;59.44;100830.66;5052837;28;44958;-61
2022/11/20 04:49:38;;;;;;;;;4.00;2.00;;;;;9.96;59.88;100832.44;5051068;28;45522;-62
2022/11/20 04:52:03;;;;;;;;;2.75;2.50;;;;;9.96;59.63;100837.78;5051040;28;45832;-61
2022/11/20 04:54:29;;;;;;;;;4.00;3.00;;;;;9.95;59.40;100836.00;5029270;28;45160;-63
2022/11/20 04:56:54;;;;;;;;;3.33;1.33;;;;;9.96;59.78;100829.78;5052902;28;44966;-62
2022/11/20 04:59:19;;;;;;;;;4.00;2.67;;;;;9.98;59.77;100833.38;5051075;28;45227;-61
2022/11/20 05:01:45;;;;;;;;;3.00;1.00;;;;;9.93;59.74;100827.00;5051172;28;45319;-61
2022/11/20 05:04:10;;;;;;;;;3.33;2.00;;;;;9.90;59.78;100821.56;5050969;28;45751;-61
2022/11/20 05:06:36;;;;;;;;;2.67;1.67;;;;;9.92;59.89;100819.88;5050553;28;45183;-63
2022/11/20 05:09:02;;;;;;;;;3.00;2.25;;;;;9.94;59.96;100815.47;5050937;28;45174;-62
2022/11/20 05:11:28;;;;;;;;;2.00;2.00;;;;;9.86;60.20;100801.91;5050164;28;45541;-61
2022/11/20 05:13:54;;;;;;;;;3.00;3.00;;;;;10.01;60.11;100814.78;5050245;28;45123;-62
2022/11/20 05:16:22;;;;;;;;;2.00;2.00;;;;;10.03;60.55;100820.19;5049870;28;45436;-62
2022/11/20 05:18:49;;;;;;;;;3.00;2.00;;;;;10.05;59.98;100810.47;5052514;28;45175;-62
2022/11/20 05:21:16;;;;;;;;;2.50;2.50;;;;;10.05;59.67;100807.81;5052701;28;45750;-61
2022/11/20 05:23:42;;;;;;;;;3.00;2.00;;;;;10.07;59.61;100811.41;5051813;28;44989;-66
2022/11/20 05:26:13;;;;;;;;;2.67;2.00;;;;;10.07;59.46;100809.66;5052767;28;45265;-61
2022/11/20 05:28:39;;;;;;;;;3.00;2.00;;;;;10.11;59.82;100813.31;5052466;28;45167;-62
2022/11/20 05:31:10;;;;;;;;;2.67;2.67;;;;;10.05;59.40;100802.47;5052302;28;46036;-61
2022/11/20 05:33:39;;;;;;;;;2.25;2.25;;;;;10.08;58.82;100811.47;5049429;28;45515;-65
2022/11/20 05:36:05;;;;;;;;;4.00;2.50;;;;;10.00;58.58;100805.00;5052705;28;45201;-62
2022/11/20 05:38:31;;;;;;;;;6.00;2.00;;;;;9.99;58.79;100805.84;5051280;28;45051;-64
2022/11/20 05:41:06;;;;;;;;;4.00;3.75;;;;;9.94;59.03;100807.47;5049919;28;45203;-61
2022/11/20 05:43:36;;;;;;;;;2.00;2.00;;;;;9.78;58.74;100783.00;5049889;28;45198;-64
2022/11/20 05:46:02;;;;;;;;;3.00;1.75;;;;;9.84;58.92;100800.06;5049624;28;45175;-61
2022/11/20 05:48:27;;;;;;;;;4.00;2.00;;;;;9.77;59.54;100791.88;5049276;28;45763;-63
2022/11/20 05:50:53;;;;;;;;;5.50;4.00;;;;;9.83;59.58;100801.81;5049040;28;46572;-63
2022/11/20 05:53:18;;;;;;;;;1.33;1.33;;;;;9.71;59.31;100797.00;5049826;28;44998;-61
2022/11/20 05:55:43;;;;;;;;;2.67;2.67;;;;;9.80;59.80;100799.06;5050887;28;45163;-65
2022/11/20 05:58:09;;;;;;;;;5.25;2.00;;;;;9.81;59.58;100802.63;5048690;28;44986;-62
2022/11/20 06:00:35;;;;;;;;;4.00;2.00;;;;;9.80;60.01;100800.81;5048031;28;45891;-62
2022/11/20 06:03:00;;;;;;;;;2.33;2.33;;;;;9.78;59.91;100807.03;5048101;28;45439;-65
2022/11/20 06:05:26;;;;;;;;;1.00;1.00;;;;;9.80;59.67;100796.41;5049556;28;45187;-64
2022/11/20 06:07:51;;;;;;;;;1.25;1.25;;;;;9.78;59.65;100790.09;5045377;28;45626;-66
2022/11/20 06:10:16;;;;;;;;;4.75;2.00;;;;;9.76;59.96;100784.69;5023877;28;47326;-61
2022/11/20 06:12:42;;;;;;;;;2.75;2.75;;;;;9.77;60.21;100790.97;5050470;28;45134;-62
2022/11/20 06:15:08;;;;;;;;;3.00;2.25;;;;;9.62;59.18;100771.81;5050185;28;45317;-62
2022/11/20 06:17:33;;;;;;;;;2.00;2.00;;;;;9.66;59.80;100777.28;5053512;28;45241;-62
2022/11/20 06:19:58;;;;;;;;;2.67;2.67;;;;;9.65;59.89;100777.25;5050281;28;45231;-60
2022/11/20 06:22:24;;;;;;;;;3.00;3.00;;;;;9.69;60.32;100788.06;5049271;28;44938;-63
2022/11/20 06:24:49;;;;;;;;;4.25;3.50;;;;;9.61;60.13;100778.03;5049781;28;45100;-63
2022/11/20 06:27:16;;;;;;;;;3.75;3.00;;;;;9.72;59.81;100784.59;5052040;28;44995;-62
2022/11/20 06:29:41;;;;;;;;;3.00;3.00;;;;;9.71;60.31;100786.34;5051441;28;45167;-64
2022/11/20 06:32:06;;;;;;;;;5.00;3.00;;;;;9.74;59.59;100782.88;5050732;28;45155;-62
2022/11/20 06:34:32;;;;;;;;;3.25;1.75;;;;;9.74;59.62;100780.19;5050435;28;45081;-61
2022/11/20 06:36:57;;;;;;;;;3.00;1.50;;;;;9.69;60.16;100780.06;5049916;28;45304;-61
2022/11/20 06:39:22;;;;;;;;;4.00;3.00;;;;;9.64;59.53;100771.00;5049437;28;45565;-64
2022/11/20 06:41:48;;;;;;;;;2.75;2.00;;;;;9.67;60.12;100771.09;5050559;28;45028;-64
2022/11/20 06:44:13;;;;;;;;;2.25;2.00;;;;;9.70;60.14;100781.88;5049557;28;45352;-66
2022/11/20 06:46:38;;;;;;;;;6.75;5.00;;;;;9.70;59.93;100783.63;5049182;28;45336;-62
2022/11/20 06:49:04;;;;;;;;;3.25;2.75;;;;;9.65;59.40;100783.50;5050732;28;45580;-62
2022/11/20 06:51:29;;;;;;;;;2.00;2.00;;;;;9.55;60.18;100770.72;5049552;28;45228;-63
2022/11/20 06:53:54;;;;;;;;;2.75;2.75;;;;;9.57;60.06;100772.59;5047811;28;46234;-67
2022/11/20 06:56:20;;;;;;;;;6.25;4.75;;;;;9.62;60.59;100771.81;5051762;28;45051;-64
2022/11/20 06:58:45;;;;;;;;;5.50;3.00;;;;;9.61;60.86;100757.56;5051379;28;44986;-64
2022/11/20 07:01:13;;;;;;;;;6.50;5.25;;;;;9.72;60.44;100780.16;5050273;28;45019;-62
2022/11/20 07:03:39;;;;;;;;;3.75;3.75;;;;;9.79;60.28;100786.56;5049961;28;45344;-62
2022/11/20 07:06:05;;;;;;;;;7.00;5.00;;;;;9.80;59.93;100795.47;5051520;28;45216;-63
2022/11/20 07:08:30;;;;;;;;;4.75;4.75;;;;;9.78;60.41;100796.34;5050754;28;46148;-66
2022/11/20 07:11:00;;;;;;;;;5.75;5.50;;;;;9.80;60.61;100795.47;5053263;28;44970;-63
2022/11/20 07:13:27;;;;;;;;;5.75;5.75;;;;;9.73;60.50;100789.97;5050604;28;45024;-62
2022/11/20 07:15:52;;;;;;;;;7.00;6.00;;;;;9.71;60.45;100782.78;5054499;28;45228;-68
2022/11/20 07:18:17;;;;;;;;;9.00;6.25;;;;;9.74;60.28;100794.44;5051871;28;45618;-62
2022/11/20 07:20:43;;;;;;;;;3.75;3.75;;;;;9.70;60.29;100799.63;5049588;28;45103;-63
2022/11/20 07:23:08;;;;;;;;;9.75;6.75;;;;;9.71;60.55;100788.09;5043664;28;45532;-63
2022/11/20 07:25:33;;;;;;;;;3.75;3.75;;;;;9.42;60.43;100740.13;5036430;28;45326;-64
2022/11/20 07:28:00;;;;;;;;;4.00;4.00;;;;;9.73;59.93;100792.66;5037169;28;45446;-62
2022/11/20 07:30:26;;;;;;;;;5.00;5.00;;;;;9.68;60.19;100788.91;5026325;28;45565;-65
2022/11/20 07:32:52;;;;;;;;;5.00;5.00;;;;;9.67;60.17;100797.78;5040457;28;45358;-61
2022/11/20 07:35:18;;;;;;;;;9.00;6.00;;;;;9.45;60.03;100765.97;5036277;28;45332;-63
2022/11/20 07:37:45;;;;;;;;;7.25;5.00;;;;;9.55;59.39;100789.38;5036460;28;46563;-64
2022/11/20 07:40:14;;;;;;;;;2.25;2.25;;;;;9.57;59.74;100807.25;5036452;28;45457;-62
2022/11/20 07:42:50;;;;;;;;;4.00;3.25;;;;;9.53;60.35;100805.34;5036166;28;45403;-63
2022/11/20 07:45:16;;;;;;;;;4.50;4.50;;;;;9.49;60.15;100787.44;5038225;28;45474;-65
2022/11/20 07:47:42;;;;;;;;;8.50;5.25;;;;;9.55;59.78;100786.72;5037780;28;46222;-64
2022/11/20 07:50:08;;;;;;;;;5.50;3.75;;;;;9.59;59.56;100799.31;5045324;28;44962;-61
2022/11/20 07:52:33;;;;;;;;;7.00;6.25;;;;;9.54;60.28;100788.50;5051975;28;44884;-69
2022/11/20 07:54:58;;;;;;;;;8.50;7.25;;;;;9.56;59.85;100778.75;5015260;28;45161;-64
2022/11/20 07:57:24;;;;;;;;;10.75;8.00;;;;;9.69;59.62;100798.72;5043907;28;45366;-64
2022/11/20 07:59:49;;;;;;;;;9.50;8.25;;;;;9.74;59.54;100796.22;5038356;28;45500;-66
2022/11/20 08:02:14;;;;;;;;;7.75;4.00;;;;;9.66;58.97;100773.72;5036001;28;45569;-69
2022/11/20 08:04:40;;;;;;;;;8.75;6.00;;;;;9.89;59.21;100802.00;5047092;28;44904;-65
2022/11/20 08:07:05;;;;;;;;;6.25;5.00;;;;;9.83;59.05;100780.44;5054002;28;45569;-67
2022/11/20 08:09:30;;;;;;;;;5.00;4.25;;;;;9.92;58.82;100790.53;5052137;28;45094;-67
2022/11/20 08:14:40;;;;;;;;;5.00;5.00;;;;;9.99;58.26;100789.84;5032284;28;45372;-62
2022/11/20 08:17:05;;;;;;;;;5.00;4.50;;;;;9.89;58.33;100785.97;5051355;28;45610;-66
2022/11/20 08:19:30;;;;;;;;;4.75;2.50;;;;;9.89;57.68;100787.75;5017718;28;45405;-66
2022/11/20 08:21:56;;;;;;;;;6.50;4.75;;;;;9.96;58.39;100795.06;5040220;28;45534;-63
2022/11/20 08:24:21;;;;;;;;;2.25;2.25;;;;;9.88;58.07;100781.53;5043995;28;45319;-62
2022/11/20 08:26:50;;;;;;;;;5.00;3.25;;;;;9.90;58.08;100777.13;5047365;28;45744;-63
2022/11/20 08:29:16;;;;;;;;;8.50;3.00;;;;;9.99;58.82;100781.81;5035844;28;45292;-62
2022/11/20 08:31:41;;;;;;;;;4.00;4.00;;;;;10.02;58.95;100778.34;5046096;28;45332;-63
2022/11/20 08:34:16;;;;;;;;;5.00;5.00;;;;;10.08;59.54;100781.19;5043438;28;45217;-64
2022/11/20 08:36:41;;;;;;;;;6.75;6.00;;;;;10.08;59.39;100774.09;5032180;28;45606;-62
2022/11/20 08:39:07;;;;;;;;;6.00;5.00;;;;;9.94;59.95;100738.97;5041485;28;45439;-61
2022/11/20 08:41:32;;;;;;;;;7.25;4.00;;;;;10.14;59.53;100771.56;5045170;28;45244;-61
2022/11/20 08:44:03;;;;;;;;;4.00;4.00;;;;;10.03;59.58;100732.09;5035663;28;45566;-63
2022/11/20 08:46:36;;;;;;;;;6.25;4.50;;;;;10.23;59.64;100754.94;4975172;28;46221;-64
2022/11/20 08:49:01;;;;;;;;;7.50;7.50;;;;;10.14;60.17;100738.66;5031958;28;45502;-61
2022/11/20 08:51:26;;;;;;;;;9.00;5.50;;;;;10.25;59.88;100747.88;5038255;28;45320;-61
2022/11/20 08:53:52;;;;;;;;;8.25;8.25;;;;;10.14;59.56;100735.97;5034198;28;45430;-64
2022/11/20 08:56:17;;;;;;;;;8.00;6.00;;;;;10.07;60.19;100732.22;5038753;28;46479;-61
2022/11/20 08:58:43;;;;;;;;;9.25;8.50;;;;;10.22;60.22;100755.78;5037759;28;45589;-61
2022/11/20 09:01:09;;;;;;;;;8.00;6.25;;;;;10.24;60.73;100745.16;5015002;28;45847;-62
2022/11/20 09:03:34;;;;;;;;;9.00;7.00;;;;;10.09;60.84;100713.59;5033433;28;46166;-61
2022/11/20 09:06:01;;;;;;;;;8.50;8.50;;;;;10.26;61.61;100743.41;5033429;28;45399;-61
2022/11/20 09:08:28;;;;;;;;;10.00;7.25;;;;;10.22;61.20;100739.75;5034098;28;45552;-64
2022/11/20 09:10:55;;;;;;;;;10.75;8.75;;;;;10.09;61.92;100727.84;5041145;28;45488;-66
2022/11/20 09:13:21;;;;;;;;;15.00;10.00;;;;;10.11;62.11;100733.22;5052044;28;45371;-63
2022/11/20 09:15:47;;;;;;;;;7.75;7.00;;;;;10.09;62.78;100734.94;5050452;28;46491;-64
2022/11/20 09:18:12;;;;;;;;;8.75;8.75;;;;;10.01;62.50;100729.38;5049085;28;44938;-66
2022/11/20 09:20:38;;;;;;;;;11.00;9.75;;;;;9.94;62.58;100706.06;5050961;28;45172;-64
2022/11/20 09:23:03;;;;;;;;;10.50;10.25;;;;;10.01;63.69;100725.81;5031877;28;45244;-63
2022/11/20 09:25:29;;;;;;;;;6.00;6.00;;;;;9.89;63.64;100697.03;5028380;28;47647;-64
2022/11/20 09:27:58;;;;;;;;;10.75;5.50;;;;;10.00;64.08;100724.00;5031658;28;45361;-64
2022/11/20 09:30:24;;;;;;;;;13.75;10.25;;;;;10.05;64.30;100711.72;5046791;28;45524;-65
2022/11/20 09:32:50;;;;;;;;;11.25;10.00;;;;;9.91;64.28;100684.63;5034506;28;45448;-64
2022/11/20 09:35:15;;;;;;;;;9.25;8.25;;;;;9.93;64.27;100678.47;5033220;28;46701;-61
2022/11/20 09:37:47;;;;;;;;;8.75;7.25;;;;;10.04;63.81;100707.22;5017047;28;45447;-65
2022/11/20 09:40:29;;;;;;;;;15.75;11.00;;;;;9.78;64.20;100652.28;5036815;28;45647;-61
2022/11/20 09:43:24;;;;;;;;;14.75;8.00;;;;;10.10;64.20;100702.97;5041641;28;45624;-66
2022/11/20 09:46:16;;;;;;;;;13.50;8.25;;;;;10.19;64.85;100688.06;5040534;28;46701;-63
2022/11/20 09:48:54;;;;;;;;;145.25;124.00;;;;;10.16;63.88;100675.50;5032751;28;45661;-62
2022/11/20 09:51:50;;;;;;;;;14.50;11.25;;;;;10.07;64.20;100656.59;5048814;28;45392;-62
2022/11/20 09:55:11;;;;;;;;;12.00;9.25;;;;;10.25;64.22;100693.56;5045655;28;45308;-64
2022/11/20 09:57:43;;;;;;;;;11.50;11.25;;;;;10.27;64.25;100690.06;5027956;28;47381;-62
2022/11/20 10:01:02;;;;;;;;;;;;;;;;;;;;;
2022/11/20 10:03:46;;;;;;;;;8.50;8.50;;;;;10.28;64.61;100694.53;5018098;28;70081;-64
2022/11/20 10:09:54;;;;;;;;;8.25;7.75;;;;;10.30;64.88;100684.81;4999068;22;45430;-67
2022/11/20 10:12:31;;;;;;;;;14.50;10.75;;;;;10.27;65.03;100670.47;5045230;28;45551;-64
2022/11/20 10:15:10;;;;;;;;;14.00;12.50;;;;;10.15;65.47;100669.28;5025700;28;45503;-65
2022/11/20 10:18:00;;;;;;;;;8.50;7.75;;;;;10.26;65.30;100671.31;5043315;28;45239;-64
2022/11/20 10:20:43;;;;;;;;;13.00;12.25;;;;;9.96;65.86;100635.88;5036147;28;46492;-64
2022/11/20 10:23:20;;;;;;;;;7.00;7.00;;;;;10.32;66.18;100668.84;5049100;28;45333;-65
2022/11/20 10:25:59;;;;;;;;;10.25;8.25;;;;;10.15;66.39;100633.69;5036224;28;45583;-64
2022/11/20 10:28:30;;;;;;;;;14.75;12.50;;;;;10.25;67.29;100642.84;5046578;28;45435;-66
2022/11/20 10:31:11;;;;;;;;;13.50;11.50;;;;;9.59;67.25;100529.91;5031824;28;46427;-63
2022/11/20 10:33:41;;;;;;;;;11.00;7.50;;;;;10.29;67.47;100644.69;5045876;28;45308;-71
2022/11/20 10:36:22;;;;;;;;;12.00;10.00;;;;;10.32;67.79;100645.72;5041510;28;45512;-72
2022/11/20 10:38:56;;;;;;;;;12.25;12.25;;;;;10.29;67.52;100642.94;5039718;28;45457;-73
2022/11/20 10:41:30;;;;;;;;;19.00;16.00;;;;;10.35;68.21;100636.91;5043400;28;45445;-78
2022/11/20 10:44:12;;;;;;;;;11.25;9.25;;;;;10.37;68.16;100642.28;5049507;28;45376;-74
2022/11/20 10:46:44;;;;;;;;;11.00;8.00;;;;;10.40;68.23;100642.34;5050309;28;45438;-77
2022/11/20 10:49:15;;;;;;;;;8.00;7.75;;;;;10.41;68.34;100644.16;5045273;28;45383;-73
2022/11/20 10:52:02;;;;;;;;;11.00;7.75;;;;;10.38;68.74;100638.72;5051531;28;46101;-63
2022/11/20 10:54:46;;;;;;;;;11.25;9.50;;;;;10.40;68.62;100634.34;5054578;28;45076;-70
2022/11/20 10:57:20;;;;;;;;;7.75;7.75;;;;;10.42;68.66;100628.16;5049755;28;45233;-71
2022/11/20 11:00:04;;;;;;;;;8.50;8.50;;;;;10.42;68.63;100622.81;5048210;28;45570;-73
2022/11/20 11:02:46;;;;;;;;;11.25;6.25;;;;;10.45;68.45;100630.00;5052961;28;45465;-74
2022/11/20 11:05:34;;;;;;;;;9.50;8.75;;;;;10.41;69.19;100621.03;5051520;28;44989;-71
2022/11/20 11:08:00;;;;;;;;;9.75;9.50;;;;;10.19;70.31;100581.25;5045851;28;45507;-72
2022/11/20 11:10:56;;;;;;;;;9.50;7.50;;;;;9.84;70.20;100510.09;5047680;28;45353;-77
2022/11/20 11:13:30;;;;;;;;;6.75;4.25;;;;;10.43;71.20;100608.59;5048555;28;45493;-70
2022/11/20 11:15:56;;;;;;;;;10.50;7.25;;;;;10.33;71.46;100567.41;5054609;28;45597;-73
2022/11/20 11:18:32;;;;;;;;;10.25;6.50;;;;;10.49;71.43;100586.47;5038845;28;45058;-72
2022/11/20 11:21:00;;;;;;;;;4.00;4.00;;;;;10.54;70.67;100599.94;5048504;28;45092;-72
2022/11/20 11:23:36;;;;;;;;;5.00;5.00;;;;;10.52;70.84;100578.53;5037637;28;45475;-73
2022/11/20 11:26:05;;;;;;;;;6.50;5.00;;;;;10.30;70.89;100548.63;5049477;28;45057;-78
2022/11/20 11:28:30;;;;;;;;;8.00;5.25;;;;;10.50;71.19;100588.28;5049018;28;45780;-78
2022/11/20 11:30:56;;;;;;;;;5.00;4.75;;;;;10.47;70.67;100593.56;5022795;28;45696;-75
2022/11/20 11:33:24;;;;;;;;;3.25;3.00;;;;;10.31;71.00;100576.22;5041384;28;45555;-81
2022/11/20 11:36:00;;;;;;;;;3.00;3.00;;;;;10.24;71.80;100567.16;5037381;28;45358;-71
2022/11/20 11:38:34;;;;;;;;;5.75;4.25;;;;;10.32;71.51;100588.75;5019751;28;45531;-70
2022/11/20 11:41:01;;;;;;;;;5.00;5.00;;;;;10.39;71.64;100577.34;5038365;28;45430;-68
2022/11/20 11:46:20;;;;;;;;;3.00;3.00;;;;;10.34;71.28;100579.00;5038554;28;45488;-69
2022/11/20 11:48:56;;;;;;;;;4.25;3.00;;;;;10.22;70.95;100560.88;5036782;28;45606;-67
2022/11/20 11:51:21;;;;;;;;;5.00;3.00;;;;;10.30;70.81;100571.75;5036357;28;45566;-68
2022/11/20 11:53:46;;;;;;;;;6.25;4.25;;;;;10.32;71.47;100567.38;5029518;28;45606;-62
2022/11/20 11:56:14;;;;;;;;;16.00;16.00;;;;;10.24;71.58;100539.56;5034248;28;46123;-64